sensor_id;sensor_type;location;lat;lon;timestamp;pressure;altitude;pressure_sealevel;temperature;humidity
26865;BME280;40618;51.166;10.322;2022-09-25T00:00:45;97105.13;;;12.77;68.58
26865;BME280;40618;51.166;10.322;2022-09-25T00:03:13;97105.13;;;12.77;68.40
26865;BME280;40618;51.166;10.322;2022-09-25T00:05:41;97096.38;;;12.78;68.85
26865;BME280;40618;51.166;10.322;2022-09-25T00:08:10;97099.91;;;12.77;68.62
26865;BME280;40618;51.166;10.322;2022-09-25T00:10:41;97100.75;;;12.77;68.47
26865;BME280;40618;51.166;10.322;2022-09-25T00:13:09;97099.06;;;12.76;68.56
26865;BME280;40618;51.166;10.322;2022-09-25T00:15:36;97093.09;;;12.74;68.59
26865;BME280;40618;51.166;10.322;2022-09-25T00:18:02;97088.81;;;12.73;68.42
26865;BME280;40618;51.166;10.322;2022-09-25T00:20:28;97088.81;;;12.73;68.71
26865;BME280;40618;51.166;10.322;2022-09-25T00:22:54;97087.97;;;12.73;68.54
26865;BME280;40618;51.166;10.322;2022-09-25T00:25:20;97088.94;;;12.70;68.67
26865;BME280;40618;51.166;10.322;2022-09-25T00:27:47;97093.28;;;12.69;68.69
26865;BME280;40618;51.166;10.322;2022-09-25T00:30:14;97090.84;;;12.66;68.47
26865;BME280;40618;51.166;10.322;2022-09-25T00:32:41;97091.06;;;12.62;68.69
26865;BME280;40618;51.166;10.322;2022-09-25T00:35:07;97087.00;;;12.55;68.40
26865;BME280;40618;51.166;10.322;2022-09-25T00:37:34;97081.06;;;12.52;68.88
26865;BME280;40618;51.166;10.322;2022-09-25T00:40:01;97079.28;;;12.53;69.21
26865;BME280;40618;51.166;10.322;2022-09-25T00:42:28;97081.13;;;12.51;68.82
26865;BME280;40618;51.166;10.322;2022-09-25T00:45:05;97087.22;;;12.50;69.00
26865;BME280;40618;51.166;10.322;2022-09-25T00:47:53;97083.09;;;12.46;68.81
26865;BME280;40618;51.166;10.322;2022-09-25T00:50:37;97079.91;;;12.39;68.96
26865;BME280;40618;51.166;10.322;2022-09-25T00:53:23;97079.31;;;12.32;68.98
26865;BME280;40618;51.166;10.322;2022-09-25T00:55:53;97076.06;;;12.27;68.99
26865;BME280;40618;51.166;10.322;2022-09-25T00:58:22;97080.56;;;12.24;69.20
26865;BME280;40618;51.166;10.322;2022-09-25T01:00:51;97071.91;;;12.23;68.94
26865;BME280;40618;51.166;10.322;2022-09-25T01:03:19;97082.25;;;12.25;69.31
26865;BME280;40618;51.166;10.322;2022-09-25T01:05:46;97075.38;;;12.24;69.23
26865;BME280;40618;51.166;10.322;2022-09-25T01:08:16;97080.72;;;12.21;69.32
26865;BME280;40618;51.166;10.322;2022-09-25T01:10:44;97080.00;;;12.17;69.05
26865;BME280;40618;51.166;10.322;2022-09-25T01:13:11;97080.97;;;12.14;69.17
26865;BME280;40618;51.166;10.322;2022-09-25T01:16:18;97079.13;;;12.16;69.29
26865;BME280;40618;51.166;10.322;2022-09-25T01:21:35;97078.22;;;12.17;69.00
26865;BME280;40618;51.166;10.322;2022-09-25T01:30:29;97081.47;;;12.02;69.57
26865;BME280;40618;51.166;10.322;2022-09-25T01:33:08;97088.38;;;12.03;69.62
26865;BME280;40618;51.166;10.322;2022-09-25T01:35:58;97082.38;;;12.01;69.39
26865;BME280;40618;51.166;10.322;2022-09-25T01:39:15;97076.28;;;12.02;69.60
26865;BME280;40618;51.166;10.322;2022-09-25T01:47:55;97081.72;;;11.96;69.35
26865;BME280;40618;51.166;10.322;2022-09-25T01:50:28;97077.38;;;11.96;69.44
26865;BME280;40618;51.166;10.322;2022-09-25T01:53:01;97076.59;;;11.94;69.72
26865;BME280;40618;51.166;10.322;2022-09-25T01:55:35;97070.53;;;11.94;69.50
26865;BME280;40618;51.166;10.322;2022-09-25T01:58:12;97073.13;;;11.94;69.71
26865;BME280;40618;51.166;10.322;2022-09-25T02:00:49;97076.69;;;11.91;69.66
26865;BME280;40618;51.166;10.322;2022-09-25T02:03:41;97078.69;;;11.84;69.54
26865;BME280;40618;51.166;10.322;2022-09-25T02:06:17;97071.94;;;11.80;69.75
26865;BME280;40618;51.166;10.322;2022-09-25T02:08:58;97078.09;;;11.78;69.72
26865;BME280;40618;51.166;10.322;2022-09-25T02:11:31;97077.13;;;11.80;69.62
26865;BME280;40618;51.166;10.322;2022-09-25T02:14:08;97071.06;;;11.81;69.52
26865;BME280;40618;51.166;10.322;2022-09-25T02:16:39;97072.97;;;11.76;69.54
26865;BME280;40618;51.166;10.322;2022-09-25T02:19:10;97067.88;;;11.75;69.81
26865;BME280;40618;51.166;10.322;2022-09-25T02:22:10;97066.00;;;11.78;70.03
26865;BME280;40618;51.166;10.322;2022-09-25T02:24:43;97074.63;;;11.79;69.99
26865;BME280;40618;51.166;10.322;2022-09-25T02:27:14;97065.94;;;11.80;70.00
26865;BME280;40618;51.166;10.322;2022-09-25T02:29:40;97063.28;;;11.81;70.02
26865;BME280;40618;51.166;10.322;2022-09-25T02:32:11;97066.75;;;11.80;69.64
26865;BME280;40618;51.166;10.322;2022-09-25T02:34:39;97065.06;;;11.79;70.00
26865;BME280;40618;51.166;10.322;2022-09-25T02:37:10;97075.50;;;11.78;69.66
26865;BME280;40618;51.166;10.322;2022-09-25T02:39:37;97073.13;;;11.73;69.86
26865;BME280;40618;51.166;10.322;2022-09-25T02:42:23;97069.72;;;11.71;69.88
26865;BME280;40618;51.166;10.322;2022-09-25T02:51:29;97070.97;;;11.62;69.99
26865;BME280;40618;51.166;10.322;2022-09-25T02:54:16;97072.81;;;11.59;70.23
26865;BME280;40618;51.166;10.322;2022-09-25T02:57:21;97069.47;;;11.57;70.15
26865;BME280;40618;51.166;10.322;2022-09-25T02:59:58;97070.44;;;11.54;69.84
26865;BME280;40618;51.166;10.322;2022-09-25T03:02:28;97068.66;;;11.55;70.41
26865;BME280;40618;51.166;10.322;2022-09-25T03:04:56;97064.38;;;11.54;69.93
26865;BME280;40618;51.166;10.322;2022-09-25T03:07:24;97069.56;;;11.54;70.05
26865;BME280;40618;51.166;10.322;2022-09-25T03:09:51;97070.44;;;11.54;70.41
26865;BME280;40618;51.166;10.322;2022-09-25T03:12:20;97074.75;;;11.54;70.64
26865;BME280;40618;51.166;10.322;2022-09-25T03:14:45;97077.34;;;11.54;70.02
26865;BME280;40618;51.166;10.322;2022-09-25T03:17:12;97066.19;;;11.51;70.70
26865;BME280;40618;51.166;10.322;2022-09-25T03:19:39;97072.16;;;11.54;70.18
26865;BME280;40618;51.166;10.322;2022-09-25T03:22:04;97066.13;;;11.53;70.16
26865;BME280;40618;51.166;10.322;2022-09-25T03:24:30;97062.72;;;11.52;70.52
26865;BME280;40618;51.166;10.322;2022-09-25T03:26:55;97065.38;;;11.51;70.37
26865;BME280;40618;51.166;10.322;2022-09-25T03:29:21;97058.63;;;11.47;70.27
26865;BME280;40618;51.166;10.322;2022-09-25T03:31:47;97063.84;;;11.45;70.67
26865;BME280;40618;51.166;10.322;2022-09-25T03:34:16;97061.25;;;11.45;70.54
26865;BME280;40618;51.166;10.322;2022-09-25T03:36:42;97069.88;;;11.46;70.82
26865;BME280;40618;51.166;10.322;2022-09-25T03:39:12;97062.19;;;11.44;70.22
26865;BME280;40618;51.166;10.322;2022-09-25T03:41:39;97053.66;;;11.41;70.60
26865;BME280;40618;51.166;10.322;2022-09-25T03:44:05;97053.72;;;11.39;71.02
26865;BME280;40618;51.166;10.322;2022-09-25T03:46:33;97051.06;;;11.41;70.84
26865;BME280;40618;51.166;10.322;2022-09-25T03:49:00;97054.50;;;11.41;70.47
26865;BME280;40618;51.166;10.322;2022-09-25T03:51:29;97043.34;;;11.39;70.50
26865;BME280;40618;51.166;10.322;2022-09-25T03:53:56;97045.94;;;11.39;70.82
26865;BME280;40618;51.166;10.322;2022-09-25T03:56:24;97044.25;;;11.38;70.80
26865;BME280;40618;51.166;10.322;2022-09-25T03:58:53;97045.13;;;11.39;70.37
26865;BME280;40618;51.166;10.322;2022-09-25T04:01:20;97046.97;;;11.35;70.60
26865;BME280;40618;51.166;10.322;2022-09-25T04:03:47;97048.69;;;11.36;70.63
26865;BME280;40618;51.166;10.322;2022-09-25T04:06:16;97046.97;;;11.35;71.02
26865;BME280;40618;51.166;10.322;2022-09-25T04:08:44;97047.03;;;11.33;70.56
26865;BME280;40618;51.166;10.322;2022-09-25T04:11:12;97045.41;;;11.31;71.03
26865;BME280;40618;51.166;10.322;2022-09-25T04:13:39;97050.47;;;11.34;71.09
26865;BME280;40618;51.166;10.322;2022-09-25T04:16:06;97046.09;;;11.36;70.89
26865;BME280;40618;51.166;10.322;2022-09-25T04:18:32;97043.34;;;11.39;71.25
26865;BME280;40618;51.166;10.322;2022-09-25T04:20:59;97050.09;;;11.43;70.95
26865;BME280;40618;51.166;10.322;2022-09-25T04:23:27;97039.75;;;11.43;70.62
26865;BME280;40618;51.166;10.322;2022-09-25T04:25:53;97047.38;;;11.46;70.65
26865;BME280;40618;51.166;10.322;2022-09-25T04:28:19;97051.69;;;11.47;71.25
26865;BME280;40618;51.166;10.322;2022-09-25T04:30:46;97051.75;;;11.46;71.19
26865;BME280;40618;51.166;10.322;2022-09-25T04:33:13;97040.50;;;11.45;71.11
26865;BME280;40618;51.166;10.322;2022-09-25T04:35:57;97042.19;;;11.46;70.97
26865;BME280;40618;51.166;10.322;2022-09-25T04:38:23;97036.88;;;11.49;71.05
26865;BME280;40618;51.166;10.322;2022-09-25T04:40:49;97045.53;;;11.50;71.07
26865;BME280;40618;51.166;10.322;2022-09-25T04:43:15;97041.09;;;11.52;71.48
26865;BME280;40618;51.166;10.322;2022-09-25T04:45:40;97044.56;;;11.52;70.98
26865;BME280;40618;51.166;10.322;2022-09-25T04:48:07;97047.16;;;11.52;70.92
26865;BME280;40618;51.166;10.322;2022-09-25T04:50:33;97048.81;;;11.54;71.04
26865;BME280;40618;51.166;10.322;2022-09-25T04:52:59;97048.88;;;11.52;71.20
26865;BME280;40618;51.166;10.322;2022-09-25T04:55:25;97047.31;;;11.48;71.38
26865;BME280;40618;51.166;10.322;2022-09-25T04:57:57;97051.59;;;11.49;71.50
26865;BME280;40618;51.166;10.322;2022-09-25T05:00:30;97049.91;;;11.48;71.40
26865;BME280;40618;51.166;10.322;2022-09-25T05:02:56;97048.28;;;11.45;71.21
26865;BME280;40618;51.166;10.322;2022-09-25T05:05:23;97047.66;;;11.40;71.58
26865;BME280;40618;51.166;10.322;2022-09-25T05:07:57;97050.19;;;11.42;71.50
26865;BME280;40618;51.166;10.322;2022-09-25T05:10:27;97052.63;;;11.45;71.79
26865;BME280;40618;51.166;10.322;2022-09-25T05:13:03;97052.63;;;11.45;71.69
26865;BME280;40618;51.166;10.322;2022-09-25T05:15:31;97045.66;;;11.47;71.83
26865;BME280;40618;51.166;10.322;2022-09-25T05:18:02;97052.56;;;11.46;71.76
26865;BME280;40618;51.166;10.322;2022-09-25T05:20:28;97047.31;;;11.48;71.85
26865;BME280;40618;51.166;10.322;2022-09-25T05:22:55;97051.59;;;11.49;71.75
26865;BME280;40618;51.166;10.322;2022-09-25T05:25:23;97051.53;;;11.50;71.51
26865;BME280;40618;51.166;10.322;2022-09-25T05:27:53;97058.41;;;11.51;71.71
26865;BME280;40618;51.166;10.322;2022-09-25T05:30:23;97048.88;;;11.52;71.79
26865;BME280;40618;51.166;10.322;2022-09-25T05:32:56;97053.25;;;11.51;71.95
26865;BME280;40618;51.166;10.322;2022-09-25T05:35:23;97057.59;;;11.51;72.04
26865;BME280;40618;51.166;10.322;2022-09-25T05:37:51;97060.19;;;11.51;72.16
26865;BME280;40618;51.166;10.322;2022-09-25T05:40:17;97053.38;;;11.48;71.76
26865;BME280;40618;51.166;10.322;2022-09-25T05:42:45;97059.59;;;11.44;71.86
26865;BME280;40618;51.166;10.322;2022-09-25T05:45:16;97056.25;;;11.41;71.81
26865;BME280;40618;51.166;10.322;2022-09-25T05:47:43;97050.94;;;11.44;72.09
26865;BME280;40618;51.166;10.322;2022-09-25T05:50:11;97057.00;;;11.44;72.08
26865;BME280;40618;51.166;10.322;2022-09-25T05:52:39;97058.72;;;11.44;71.86
26865;BME280;40618;51.166;10.322;2022-09-25T05:55:05;97054.47;;;11.43;72.34
26865;BME280;40618;51.166;10.322;2022-09-25T05:57:33;97058.72;;;11.44;72.37
26865;BME280;40618;51.166;10.322;2022-09-25T06:00:00;97055.16;;;11.46;72.23
26865;BME280;40618;51.166;10.322;2022-09-25T06:02:26;97055.03;;;11.49;72.48
26865;BME280;40618;51.166;10.322;2022-09-25T06:04:52;97060.34;;;11.46;72.25
26865;BME280;40618;51.166;10.322;2022-09-25T06:07:18;97060.41;;;11.45;72.35
26865;BME280;40618;51.166;10.322;2022-09-25T06:09:44;97062.03;;;11.47;72.14
26865;BME280;40618;51.166;10.322;2022-09-25T06:12:09;97067.22;;;11.47;72.25
26865;BME280;40618;51.166;10.322;2022-09-25T06:14:35;97063.00;;;11.45;72.24
26865;BME280;40618;51.166;10.322;2022-09-25T06:17:01;97063.00;;;11.45;72.61
26865;BME280;40618;51.166;10.322;2022-09-25T06:19:27;97069.94;;;11.44;72.72
26865;BME280;40618;51.166;10.322;2022-09-25T06:21:54;97064.03;;;11.41;72.21
26865;BME280;40618;51.166;10.322;2022-09-25T06:24:22;97059.50;;;11.46;72.61
26865;BME280;40618;51.166;10.322;2022-09-25T06:26:48;97064.44;;;11.52;72.53
26865;BME280;40618;51.166;10.322;2022-09-25T06:29:14;97063.47;;;11.55;73.04
26865;BME280;40618;51.166;10.322;2022-09-25T06:31:39;97063.38;;;11.58;73.04
26865;BME280;40618;51.166;10.322;2022-09-25T06:34:05;97064.22;;;11.58;72.80
26865;BME280;40618;51.166;10.322;2022-09-25T06:36:31;97065.84;;;11.61;72.71
26865;BME280;40618;51.166;10.322;2022-09-25T06:38:57;97066.75;;;11.60;72.87
26865;BME280;40618;51.166;10.322;2022-09-25T06:41:22;97070.22;;;11.59;73.08
26865;BME280;40618;51.166;10.322;2022-09-25T06:43:51;97063.19;;;11.62;72.92
26865;BME280;40618;51.166;10.322;2022-09-25T06:46:17;97070.00;;;11.65;72.74
26865;BME280;40618;51.166;10.322;2022-09-25T06:48:54;97060.44;;;11.65;73.28
26865;BME280;40618;51.166;10.322;2022-09-25T06:51:23;97058.59;;;11.69;73.18
26865;BME280;40618;51.166;10.322;2022-09-25T06:53:52;97063.63;;;11.72;73.16
26865;BME280;40618;51.166;10.322;2022-09-25T06:56:19;97065.19;;;11.76;73.31
26865;BME280;40618;51.166;10.322;2022-09-25T06:58:45;97058.16;;;11.80;73.20
26865;BME280;40618;51.166;10.322;2022-09-25T07:01:11;97059.78;;;11.82;73.27
26865;BME280;40618;51.166;10.322;2022-09-25T07:03:38;97064.03;;;11.83;73.40
26865;BME280;40618;51.166;10.322;2022-09-25T07:06:23;97065.72;;;11.84;73.15
26865;BME280;40618;51.166;10.322;2022-09-25T07:08:52;97066.63;;;11.83;73.23
26865;BME280;40618;51.166;10.322;2022-09-25T07:11:20;97063.06;;;11.86;73.23
26865;BME280;40618;51.166;10.322;2022-09-25T07:13:47;97068.19;;;11.88;73.11
26865;BME280;40618;51.166;10.322;2022-09-25T07:16:17;97063.19;;;11.83;72.90
26865;BME280;40618;51.166;10.322;2022-09-25T07:18:44;97066.69;;;11.82;73.10
26865;BME280;40618;51.166;10.322;2022-09-25T07:21:12;97065.66;;;11.86;73.11
26865;BME280;40618;51.166;10.322;2022-09-25T07:23:41;97067.28;;;11.89;73.35
26865;BME280;40618;51.166;10.322;2022-09-25T07:26:12;97068.47;;;11.81;73.23
26865;BME280;40618;51.166;10.322;2022-09-25T07:28:40;97068.31;;;11.84;73.36
26865;BME280;40618;51.166;10.322;2022-09-25T07:31:14;97066.56;;;11.85;73.35
26865;BME280;40618;51.166;10.322;2022-09-25T07:33:41;97059.78;;;11.82;73.51
26865;BME280;40618;51.166;10.322;2022-09-25T07:36:07;97056.97;;;11.87;73.67
26865;BME280;40618;51.166;10.322;2022-09-25T07:38:34;97062.03;;;11.90;73.52
26865;BME280;40618;51.166;10.322;2022-09-25T07:41:02;97063.56;;;11.96;73.52
26865;BME280;40618;51.166;10.322;2022-09-25T07:43:30;97062.50;;;12.00;73.50
26865;BME280;40618;51.166;10.322;2022-09-25T07:45:59;97065.84;;;12.04;73.73
26865;BME280;40618;51.166;10.322;2022-09-25T07:48:26;97065.63;;;12.08;73.77
26865;BME280;40618;51.166;10.322;2022-09-25T07:50:58;97063.63;;;12.15;73.67
26865;BME280;40618;51.166;10.322;2022-09-25T07:53:24;97065.38;;;12.14;73.09
26865;BME280;40618;51.166;10.322;2022-09-25T07:55:50;97066.56;;;12.07;73.17
26865;BME280;40618;51.166;10.322;2022-09-25T07:58:16;97069.03;;;12.10;73.45
26865;BME280;40618;51.166;10.322;2022-09-25T08:00:44;97071.69;;;12.09;73.21
26865;BME280;40618;51.166;10.322;2022-09-25T08:03:10;97070.72;;;12.11;73.66
26865;BME280;40618;51.166;10.322;2022-09-25T08:05:36;97068.81;;;12.15;73.48
26865;BME280;40618;51.166;10.322;2022-09-25T08:08:01;97069.69;;;12.15;73.34
26865;BME280;40618;51.166;10.322;2022-09-25T08:10:27;97068.63;;;12.19;73.37
26865;BME280;40618;51.166;10.322;2022-09-25T08:12:53;97067.00;;;12.17;73.38
26865;BME280;40618;51.166;10.322;2022-09-25T08:15:19;97060.06;;;12.17;73.44
26865;BME280;40618;51.166;10.322;2022-09-25T08:17:44;97055.59;;;12.21;73.19
26865;BME280;40618;51.166;10.322;2022-09-25T08:20:10;97063.31;;;12.23;73.23
26865;BME280;40618;51.166;10.322;2022-09-25T08:22:36;97066.47;;;12.29;73.30
26865;BME280;40618;51.166;10.322;2022-09-25T08:25:01;97061.22;;;12.31;73.44
26865;BME280;40618;51.166;10.322;2022-09-25T08:27:31;97059.19;;;12.38;73.21
26865;BME280;40618;51.166;10.322;2022-09-25T08:29:57;97053.78;;;12.42;73.40
26865;BME280;40618;51.166;10.322;2022-09-25T08:32:22;97059.78;;;12.44;73.17
26865;BME280;40618;51.166;10.322;2022-09-25T08:34:48;97061.41;;;12.47;73.29
26865;BME280;40618;51.166;10.322;2022-09-25T08:37:14;97061.31;;;12.48;73.35
26865;BME280;40618;51.166;10.322;2022-09-25T08:39:41;97063.06;;;12.48;72.94
26865;BME280;40618;51.166;10.322;2022-09-25T08:42:20;97067.56;;;12.44;72.80
26865;BME280;40618;51.166;10.322;2022-09-25T08:45:04;97067.75;;;12.40;72.63
26865;BME280;40618;51.166;10.322;2022-09-25T08:47:54;97069.53;;;12.39;72.84
26865;BME280;40618;51.166;10.322;2022-09-25T08:50:41;97060.91;;;12.39;73.00
26865;BME280;40618;51.166;10.322;2022-09-25T08:53:21;97060.81;;;12.40;72.83
26865;BME280;40618;51.166;10.322;2022-09-25T08:55:49;97065.03;;;12.43;72.96
26865;BME280;40618;51.166;10.322;2022-09-25T08:58:37;97054.44;;;12.47;72.95
26865;BME280;40618;51.166;10.322;2022-09-25T09:01:12;97059.72;;;12.46;72.90
26865;BME280;40618;51.166;10.322;2022-09-25T09:03:49;97059.78;;;12.44;72.79
26865;BME280;40618;51.166;10.322;2022-09-25T09:06:17;97061.31;;;12.48;73.03
26865;BME280;40618;51.166;10.322;2022-09-25T09:08:58;97054.38;;;12.49;72.89
26865;BME280;40618;51.166;10.322;2022-09-25T09:11:57;97056.72;;;12.55;73.21
26865;BME280;40618;51.166;10.322;2022-09-25T09:14:51;97054.75;;;12.60;73.12
26865;BME280;40618;51.166;10.322;2022-09-25T09:17:41;97057.97;;;12.65;73.24
26865;BME280;40618;51.166;10.322;2022-09-25T09:20:16;97057.78;;;12.70;73.11
26865;BME280;40618;51.166;10.322;2022-09-25T09:22:47;97061.00;;;12.75;72.67
26865;BME280;40618;51.166;10.322;2022-09-25T09:31:06;97053.84;;;12.80;72.63
26865;BME280;40618;51.166;10.322;2022-09-25T09:36:40;97053.66;;;12.85;72.76
26865;BME280;40618;51.166;10.322;2022-09-25T09:39:36;97051.06;;;12.85;72.64
26865;BME280;40618;51.166;10.322;2022-09-25T09:50:49;97052.44;;;12.73;72.77
26865;BME280;40618;51.166;10.322;2022-09-25T09:53:31;97049.91;;;12.72;72.65
26865;BME280;40618;51.166;10.322;2022-09-25T09:56:26;97050.75;;;12.72;72.87
26865;BME280;40618;51.166;10.322;2022-09-25T09:59:13;97045.28;;;12.78;72.57
26865;BME280;40618;51.166;10.322;2022-09-25T10:01:42;97052.03;;;12.82;72.68
26865;BME280;40618;51.166;10.322;2022-09-25T10:04:24;97045.00;;;12.84;72.77
26865;BME280;40618;51.166;10.322;2022-09-25T10:06:58;97038.97;;;12.84;72.41
26865;BME280;40618;51.166;10.322;2022-09-25T10:09:29;97037.28;;;12.83;72.38
26865;BME280;40618;51.166;10.322;2022-09-25T10:14:41;97038.88;;;12.85;72.46
26865;BME280;40618;51.166;10.322;2022-09-25T10:17:10;97044.72;;;12.91;72.33
26865;BME280;40618;51.166;10.322;2022-09-25T10:19:58;97048.09;;;12.93;72.47
26865;BME280;40618;51.166;10.322;2022-09-25T10:22:39;97049.78;;;12.94;72.32
26865;BME280;40618;51.166;10.322;2022-09-25T10:25:09;97054.13;;;12.93;72.25
26865;BME280;40618;51.166;10.322;2022-09-25T10:27:37;97047.19;;;12.94;72.20
26865;BME280;40618;51.166;10.322;2022-09-25T10:35:44;97054.81;;;12.97;72.36
26865;BME280;40618;51.166;10.322;2022-09-25T10:38:33;97047.81;;;12.99;72.16
26865;BME280;40618;51.166;10.322;2022-09-25T10:41:18;97047.66;;;13.02;72.19
26865;BME280;40618;51.166;10.322;2022-09-25T10:43:58;97051.16;;;13.01;72.16
26865;BME280;40618;51.166;10.322;2022-09-25T10:46:27;97052.03;;;13.01;72.16
26865;BME280;40618;51.166;10.322;2022-09-25T10:49:30;97045.97;;;13.01;72.12
26865;BME280;40618;51.166;10.322;2022-09-25T10:52:16;97050.50;;;12.97;72.14
26865;BME280;40618;51.166;10.322;2022-09-25T10:54:43;97045.00;;;12.84;71.76
26865;BME280;40618;51.166;10.322;2022-09-25T10:57:27;97045.16;;;12.81;72.12
26865;BME280;40618;51.166;10.322;2022-09-25T10:59:59;97047.81;;;12.80;72.00
26865;BME280;40618;51.166;10.322;2022-09-25T11:02:40;97044.31;;;12.81;72.16
26865;BME280;40618;51.166;10.322;2022-09-25T11:05:19;97054.63;;;12.82;72.07
26865;BME280;40618;51.166;10.322;2022-09-25T11:07:48;97046.13;;;12.79;72.14
26865;BME280;40618;51.166;10.322;2022-09-25T11:10:21;97057.41;;;12.78;72.03
26865;BME280;40618;51.166;10.322;2022-09-25T11:12:50;97050.59;;;12.75;72.16
26865;BME280;40618;51.166;10.322;2022-09-25T11:15:19;97043.84;;;12.71;72.04
26865;BME280;40618;51.166;10.322;2022-09-25T11:17:48;97040.34;;;12.72;72.20
26865;BME280;40618;51.166;10.322;2022-09-25T11:26:05;97036.44;;;12.82;72.12
26865;BME280;40618;51.166;10.322;2022-09-25T11:28:45;97049.34;;;12.84;72.08
26865;BME280;40618;51.166;10.322;2022-09-25T11:31:32;97053.84;;;12.80;71.85
26865;BME280;40618;51.166;10.322;2022-09-25T11:37:09;97045.00;;;12.84;72.00
26865;BME280;40618;51.166;10.322;2022-09-25T11:43:05;97039.44;;;12.92;72.04
26865;BME280;40618;51.166;10.322;2022-09-25T11:45:48;97040.28;;;12.93;71.94
26865;BME280;40618;51.166;10.322;2022-09-25T11:57:24;97028.56;;;13.03;71.65
26865;BME280;40618;51.166;10.322;2022-09-25T12:00:16;97029.19;;;13.08;71.77
26865;BME280;40618;51.166;10.322;2022-09-25T12:08:34;97018.84;;;13.07;71.45
26865;BME280;40618;51.166;10.322;2022-09-25T12:13:59;97026.78;;;13.03;71.40
26865;BME280;40618;51.166;10.322;2022-09-25T12:25:08;97020.13;;;12.98;71.11
26865;BME280;40618;51.166;10.322;2022-09-25T12:28:05;97025.97;;;13.03;71.12
26865;BME280;40618;51.166;10.322;2022-09-25T12:39:50;97013.22;;;13.16;70.91
26865;BME280;40618;51.166;10.322;2022-09-25T12:50:58;97005.94;;;13.05;70.86
26865;BME280;40618;51.166;10.322;2022-09-25T12:53:48;97006.78;;;13.06;70.58
26865;BME280;40618;51.166;10.322;2022-09-25T12:56:31;97003.31;;;13.05;70.85
26865;BME280;40618;51.166;10.322;2022-09-25T13:04:42;96996.59;;;13.01;71.00
26865;BME280;40618;51.166;10.322;2022-09-25T13:13:25;97000.94;;;13.19;70.54
26865;BME280;40618;51.166;10.322;2022-09-25T13:15:58;97006.47;;;13.12;70.35
26865;BME280;40618;51.166;10.322;2022-09-25T13:18:27;97010.44;;;13.01;70.45
26865;BME280;40618;51.166;10.322;2022-09-25T13:20:56;97002.91;;;12.95;70.26
26865;BME280;40618;51.166;10.322;2022-09-25T13:23:33;97003.91;;;12.93;70.24
26865;BME280;40618;51.166;10.322;2022-09-25T13:26:40;96997.81;;;12.94;70.34
26865;BME280;40618;51.166;10.322;2022-09-25T13:29:26;96995.84;;;12.99;70.22
26865;BME280;40618;51.166;10.322;2022-09-25T13:32:15;96993.78;;;13.06;70.38
26865;BME280;40618;51.166;10.322;2022-09-25T13:34:43;96992.66;;;13.11;70.39
26865;BME280;40618;51.166;10.322;2022-09-25T13:37:11;96997.78;;;13.13;70.18
26865;BME280;40618;51.166;10.322;2022-09-25T13:39:43;96989.91;;;13.14;70.04
26865;BME280;40618;51.166;10.322;2022-09-25T13:42:38;96988.00;;;13.18;70.20
26865;BME280;40618;51.166;10.322;2022-09-25T13:53:11;96976.75;;;13.17;69.90
26865;BME280;40618;51.166;10.322;2022-09-25T13:58:19;96983.09;;;13.12;69.75
26865;BME280;40618;51.166;10.322;2022-09-25T14:03:40;96968.41;;;13.11;69.16
26865;BME280;40618;51.166;10.322;2022-09-25T14:06:28;96970.88;;;13.14;69.69
26865;BME280;40618;51.166;10.322;2022-09-25T14:09:04;96963.16;;;13.12;69.64
26865;BME280;40618;51.166;10.322;2022-09-25T14:11:34;96960.47;;;13.14;69.56
26865;BME280;40618;51.166;10.322;2022-09-25T14:14:06;96966.34;;;13.17;69.76
26865;BME280;40618;51.166;10.322;2022-09-25T14:16:54;96959.25;;;13.21;69.63
26865;BME280;40618;51.166;10.322;2022-09-25T14:19:25;96962.56;;;13.25;69.48
26865;BME280;40618;51.166;10.322;2022-09-25T14:22:03;96949.31;;;13.29;69.61
26865;BME280;40618;51.166;10.322;2022-09-25T14:24:30;96958.03;;;13.28;69.60
26865;BME280;40618;51.166;10.322;2022-09-25T14:26:58;96961.56;;;13.27;69.41
26865;BME280;40618;51.166;10.322;2022-09-25T14:29:29;96956.56;;;13.23;69.45
26865;BME280;40618;51.166;10.322;2022-09-25T14:41:09;96955.63;;;13.06;69.19
26865;BME280;40618;51.166;10.322;2022-09-25T14:44:05;96953.28;;;13.01;69.29
26865;BME280;40618;51.166;10.322;2022-09-25T14:46:54;96954.19;;;13.00;69.38
26865;BME280;40618;51.166;10.322;2022-09-25T14:49:30;96945.81;;;12.94;69.32
26865;BME280;40618;51.166;10.322;2022-09-25T14:52:05;96938.09;;;12.92;69.38
26865;BME280;40618;51.166;10.322;2022-09-25T14:54:37;96942.31;;;12.95;69.56
26865;BME280;40618;51.166;10.322;2022-09-25T14:57:06;96933.63;;;12.96;69.48
26865;BME280;40618;51.166;10.322;2022-09-25T15:04:44;96946.22;;;13.03;69.14
26865;BME280;40618;51.166;10.322;2022-09-25T15:07:14;96943.53;;;13.05;69.16
26865;BME280;40618;51.166;10.322;2022-09-25T15:09:48;96948.81;;;13.03;69.16
26865;BME280;40618;51.166;10.322;2022-09-25T15:12:43;96948.16;;;13.00;69.20
26865;BME280;40618;51.166;10.322;2022-09-25T15:15:12;96950.94;;;12.95;69.02
26865;BME280;40618;51.166;10.322;2022-09-25T15:17:52;96947.78;;;12.89;69.01
26865;BME280;40618;51.166;10.322;2022-09-25T15:20:25;96946.25;;;12.84;69.20
26865;BME280;40618;51.166;10.322;2022-09-25T15:22:59;96944.56;;;12.83;69.06
26865;BME280;40618;51.166;10.322;2022-09-25T15:25:30;96941.97;;;12.83;68.84
26865;BME280;40618;51.166;10.322;2022-09-25T15:28:06;96942.97;;;12.81;69.20
26865;BME280;40618;51.166;10.322;2022-09-25T15:30:35;96937.63;;;12.84;69.13
26865;BME280;40618;51.166;10.322;2022-09-25T15:33:03;96938.63;;;12.81;69.06
26865;BME280;40618;51.166;10.322;2022-09-25T15:35:29;96932.63;;;12.79;69.03
26865;BME280;40618;51.166;10.322;2022-09-25T15:38:14;96938.78;;;12.78;69.01
26865;BME280;40618;51.166;10.322;2022-09-25T15:40:53;96928.72;;;12.70;68.72